createdAt,value
2018-11-22T00:00:05.809Z,9.30
2018-11-22T00:02:46.122Z,9.13
2018-11-22T00:05:25.448Z,9.87
2018-11-22T00:08:04.716Z,11.03
2018-11-22T00:10:44.602Z,11.10
2018-11-22T00:13:23.956Z,12.00
2018-11-22T00:16:03.409Z,11.77
2018-11-22T00:18:42.994Z,10.70
2018-11-22T00:21:22.554Z,8.03
2018-11-22T00:24:02.018Z,9.10
2018-11-22T00:26:41.741Z,8.37
2018-11-22T00:29:21.301Z,8.57
2018-11-22T00:32:01.241Z,11.57
2018-11-22T00:34:40.698Z,12.07
2018-11-22T00:37:20.478Z,10.83
2018-11-22T00:39:59.875Z,12.67
2018-11-22T00:42:40.150Z,11.17
2018-11-22T00:45:21.745Z,9.33
2018-11-22T00:48:01.887Z,9.87
2018-11-22T00:50:41.184Z,9.70
2018-11-22T00:53:20.563Z,9.87
2018-11-22T00:55:59.990Z,8.90
2018-11-22T00:58:39.548Z,8.37
2018-11-22T01:01:19.266Z,8.77
2018-11-22T01:03:58.934Z,9.87
2018-11-22T01:06:38.465Z,10.47
2018-11-22T01:09:17.857Z,12.93
2018-11-22T01:11:57.485Z,12.80
2018-11-22T01:14:37.328Z,13.57
2018-11-22T01:17:16.816Z,14.87
2018-11-22T01:19:56.807Z,15.23
2018-11-22T01:22:36.661Z,14.80
2018-11-22T01:25:16.917Z,14.43
2018-11-22T01:27:57.054Z,16.07
2018-11-22T01:30:36.848Z,16.07
2018-11-22T01:33:16.356Z,15.57
2018-11-22T01:35:56.365Z,15.93
2018-11-22T01:38:36.134Z,17.40
2018-11-22T01:41:15.413Z,17.17
2018-11-22T01:43:55.198Z,16.80
2018-11-22T01:46:34.591Z,16.90
2018-11-22T01:49:14.014Z,16.90
2018-11-22T01:51:53.830Z,16.13
2018-11-22T01:54:33.427Z,17.40
2018-11-22T01:57:13.340Z,17.50
2018-11-22T01:59:52.958Z,19.10
2018-11-22T02:02:32.530Z,17.43
2018-11-22T02:05:13.269Z,17.97
2018-11-22T02:07:53.320Z,18.67
2018-11-22T02:10:33.016Z,17.80
2018-11-22T02:13:12.729Z,18.37
2018-11-22T02:15:52.298Z,17.50
2018-11-22T02:18:32.182Z,18.63
2018-11-22T02:21:11.798Z,16.77
2018-11-22T02:23:51.751Z,18.20
2018-11-22T02:26:31.386Z,18.57
2018-11-22T02:29:11.501Z,18.40
2018-11-22T02:31:51.061Z,17.57
2018-11-22T02:34:30.842Z,20.37
2018-11-22T02:37:10.294Z,20.00
2018-11-22T02:39:50.198Z,18.30
2018-11-22T02:42:29.550Z,18.27
2018-11-22T02:45:09.371Z,18.30
2018-11-22T02:47:48.692Z,19.37
2018-11-22T02:50:28.249Z,17.90
2018-11-22T02:53:07.825Z,18.47
2018-11-22T02:55:47.576Z,18.80
2018-11-22T02:58:27.423Z,18.33
2018-11-22T03:01:07.173Z,19.37
2018-11-22T03:03:46.676Z,18.50
2018-11-22T03:06:26.407Z,18.43
2018-11-22T03:09:06.007Z,20.77
2018-11-22T03:11:46.189Z,18.63
2018-11-22T03:14:26.503Z,19.30
2018-11-22T03:17:05.995Z,19.17
2018-11-22T03:19:46.262Z,18.13
2018-11-22T03:22:25.857Z,19.17
2018-11-22T03:25:05.533Z,21.87
2018-11-22T03:27:45.734Z,19.90
2018-11-22T03:30:25.624Z,19.63
2018-11-22T03:33:05.309Z,19.57
2018-11-22T03:35:44.987Z,19.23
2018-11-22T03:38:24.423Z,20.33
2018-11-22T03:41:04.174Z,18.27
2018-11-22T03:43:43.975Z,20.47
2018-11-22T03:46:23.456Z,18.87
2018-11-22T03:49:02.971Z,20.77
2018-11-22T03:51:42.433Z,18.97
2018-11-22T03:54:22.005Z,20.37
2018-11-22T03:57:01.517Z,19.80
2018-11-22T03:59:40.885Z,19.53
2018-11-22T04:02:20.769Z,20.90
2018-11-22T04:05:00.277Z,18.83
2018-11-22T04:07:39.947Z,20.43
2018-11-22T04:10:21.277Z,20.30
2018-11-22T04:13:00.695Z,18.57
2018-11-22T04:15:40.744Z,18.57
2018-11-22T04:18:20.313Z,18.80
2018-11-22T04:20:59.895Z,20.53
2018-11-22T04:23:39.155Z,19.73
2018-11-22T04:26:24.038Z,21.67
2018-11-22T04:28:58.868Z,19.10
2018-11-22T04:31:38.358Z,21.13
2018-11-22T04:34:17.956Z,20.47
2018-11-22T04:36:57.523Z,19.67
2018-11-22T04:39:37.286Z,19.90
2018-11-22T04:42:17.412Z,19.33
2018-11-22T04:44:57.226Z,21.07
2018-11-22T04:47:36.922Z,18.70
2018-11-22T04:50:21.110Z,19.73
2018-11-22T04:53:00.643Z,19.47
2018-11-22T04:55:40.646Z,19.13
2018-11-22T04:58:20.236Z,20.03
2018-11-22T05:00:59.845Z,20.83
2018-11-22T05:03:39.825Z,19.60
2018-11-22T05:06:19.277Z,21.47
2018-11-22T05:08:58.811Z,19.93
2018-11-22T05:11:38.616Z,19.93
2018-11-22T05:14:17.922Z,21.17
2018-11-22T05:16:57.458Z,20.27
2018-11-22T05:19:37.309Z,17.80
2018-11-22T05:22:17.372Z,19.30
2018-11-22T05:24:57.050Z,17.57
2018-11-22T05:27:36.718Z,16.57
2018-11-22T05:30:15.847Z,15.53
2018-11-22T05:33:02.521Z,14.27
2018-11-22T05:35:48.974Z,14.00
2018-11-22T05:38:35.687Z,14.63
2018-11-22T05:41:22.439Z,13.77
2018-11-22T05:44:09.798Z,12.83
2018-11-22T05:46:56.781Z,13.37
2018-11-22T05:49:43.484Z,12.67
2018-11-22T05:52:30.210Z,13.73
2018-11-22T05:55:16.880Z,12.43
2018-11-22T05:58:03.375Z,13.47
2018-11-22T06:00:50.040Z,12.43
2018-11-22T06:03:36.956Z,14.83
2018-11-22T06:06:23.414Z,14.37
2018-11-22T06:09:10.631Z,15.10
2018-11-22T06:11:57.410Z,14.87
2018-11-22T06:14:44.167Z,14.13
2018-11-22T06:17:30.648Z,13.80
2018-11-22T06:20:18.684Z,14.90
2018-11-22T06:23:05.144Z,14.90
2018-11-22T06:25:51.907Z,16.00
2018-11-22T06:28:38.613Z,15.73
2018-11-22T06:31:25.314Z,15.20
2018-11-22T06:34:11.777Z,15.87
2018-11-22T06:36:58.238Z,15.47
2018-11-22T06:39:44.781Z,16.13
2018-11-22T06:42:31.170Z,16.70
2018-11-22T06:45:19.394Z,16.43
2018-11-22T06:48:06.113Z,17.40
2018-11-22T06:50:52.857Z,15.53
2018-11-22T06:53:39.581Z,17.07
2018-11-22T06:56:26.029Z,17.20
2018-11-22T06:59:12.484Z,16.80
2018-11-22T07:01:58.944Z,17.10
2018-11-22T07:04:45.429Z,17.90
2018-11-22T07:07:31.861Z,17.37
2018-11-22T07:10:18.510Z,18.53
2018-11-22T07:13:04.947Z,16.40
2018-11-22T07:15:51.421Z,17.53
2018-11-22T07:18:37.874Z,18.37
2018-11-22T07:21:24.356Z,17.23
2018-11-22T07:24:10.975Z,18.13
2018-11-22T07:26:57.612Z,18.33
2018-11-22T07:29:44.311Z,18.93
2018-11-22T07:32:31.020Z,17.47
2018-11-22T07:35:18.849Z,19.47
2018-11-22T07:40:58.660Z,17.83
2018-11-22T07:43:45.152Z,16.97
2018-11-22T07:46:31.645Z,18.13
2018-11-22T07:49:25.473Z,16.87
2018-11-22T07:52:11.894Z,17.13
2018-11-22T07:54:58.369Z,16.27
2018-11-22T07:57:45.282Z,16.20
2018-11-22T08:00:33.495Z,16.70
2018-11-22T08:03:19.950Z,17.00
2018-11-22T08:06:06.700Z,16.67
2018-11-22T08:08:53.120Z,15.00
2018-11-22T08:11:33.633Z,15.23
2018-11-22T08:14:13.657Z,15.33
2018-11-22T08:16:53.103Z,16.53
2018-11-22T08:19:32.641Z,16.70
2018-11-22T08:22:12.481Z,16.73
2018-11-22T08:24:52.446Z,16.20
2018-11-22T08:27:31.857Z,16.37
2018-11-22T08:30:12.419Z,16.77
2018-11-22T08:32:52.711Z,15.17
2018-11-22T08:35:32.365Z,16.87
2018-11-22T08:38:12.068Z,17.23
2018-11-22T08:40:51.750Z,15.90
2018-11-22T08:43:31.346Z,17.40
2018-11-22T08:46:10.903Z,16.97
2018-11-22T08:48:50.654Z,19.10
2018-11-22T08:51:30.103Z,17.27
2018-11-22T08:54:09.883Z,16.83
2018-11-22T08:56:49.095Z,17.03
2018-11-22T08:59:28.799Z,17.60
2018-11-22T09:02:08.683Z,17.60
2018-11-22T09:04:48.080Z,18.30
2018-11-22T09:07:27.556Z,17.40
2018-11-22T09:10:07.224Z,16.57
2018-11-22T09:12:47.248Z,14.97
2018-11-22T09:15:31.397Z,16.50
2018-11-22T09:18:07.996Z,18.67
2018-11-22T09:20:48.153Z,16.60
2018-11-22T09:23:27.764Z,17.03
2018-11-22T09:26:07.255Z,16.27
2018-11-22T09:28:46.885Z,17.03
2018-11-22T09:31:26.603Z,17.80
2018-11-22T09:34:06.273Z,16.30
2018-11-22T09:36:46.113Z,17.40
2018-11-22T09:39:25.411Z,16.50
2018-11-22T09:42:05.226Z,17.20
2018-11-22T09:44:45.193Z,15.57
2018-11-22T09:47:24.931Z,15.93
2018-11-22T09:50:04.750Z,17.03
2018-11-22T09:52:45.720Z,16.00
2018-11-22T09:55:25.989Z,15.87
2018-11-22T09:58:05.764Z,16.10
2018-11-22T10:00:45.304Z,15.73
2018-11-22T10:03:24.902Z,18.20
2018-11-22T10:06:04.466Z,18.43
2018-11-22T10:08:44.350Z,17.70
2018-11-22T10:11:23.575Z,18.13
2018-11-22T10:14:03.552Z,17.07
2018-11-22T10:16:43.907Z,17.43
2018-11-22T10:19:23.281Z,16.97
2018-11-22T10:22:03.227Z,15.80
2018-11-22T10:24:43.656Z,15.80
2018-11-22T10:27:23.135Z,15.20
2018-11-22T10:30:09.349Z,17.07
2018-11-22T10:32:50.105Z,17.20
2018-11-22T10:35:31.283Z,15.17
2018-11-22T10:38:10.640Z,16.80
2018-11-22T10:40:50.343Z,16.23
2018-11-22T10:43:30.268Z,15.73
2018-11-22T10:46:10.065Z,15.07
2018-11-22T10:48:49.246Z,14.40
2018-11-22T10:51:29.619Z,16.93
2018-11-22T10:54:09.541Z,16.17
2018-11-22T10:56:49.074Z,16.10
2018-11-22T10:59:29.207Z,15.87
2018-11-22T11:02:28.305Z,17.23
2018-11-22T11:05:27.369Z,16.10
2018-11-22T11:08:26.285Z,17.13
2018-11-22T11:11:05.797Z,17.33
2018-11-22T11:13:45.382Z,16.87
2018-11-22T11:16:24.931Z,16.93
2018-11-22T11:19:04.583Z,15.77
2018-11-22T11:21:43.940Z,14.60
2018-11-22T11:24:23.718Z,16.30
2018-11-22T11:27:03.333Z,16.93
2018-11-22T11:29:43.156Z,15.60
2018-11-22T11:32:22.733Z,15.83
2018-11-22T11:35:02.146Z,16.53
2018-11-22T11:37:41.700Z,14.27
2018-11-22T11:40:25.633Z,14.70
2018-11-22T11:43:05.138Z,14.47
2018-11-22T11:45:48.565Z,13.20
2018-11-22T11:48:28.086Z,14.67
2018-11-22T11:51:07.644Z,9.67
2018-11-22T11:53:47.267Z,13.67
2018-11-22T11:56:26.995Z,13.20
2018-11-22T11:59:06.518Z,11.63
2018-11-22T12:01:46.693Z,12.93
2018-11-22T12:04:26.094Z,13.53
2018-11-22T12:07:05.634Z,12.53
2018-11-22T12:09:45.068Z,13.10
2018-11-22T12:12:24.569Z,12.20
2018-11-22T12:15:04.020Z,12.53
2018-11-22T12:17:43.794Z,13.43
2018-11-22T12:20:23.451Z,13.00
2018-11-22T12:23:02.873Z,13.73
2018-11-22T12:25:42.226Z,14.80
2018-11-22T12:28:22.045Z,14.57
2018-11-22T12:31:06.477Z,13.60
2018-11-22T12:33:41.143Z,14.30
2018-11-22T12:36:24.654Z,14.07
2018-11-22T12:39:04.517Z,14.63
2018-11-22T12:41:44.329Z,14.13
2018-11-22T12:44:23.850Z,15.17
2018-11-22T12:47:03.450Z,14.67
2018-11-22T12:49:43.204Z,14.17
2018-11-22T12:52:22.453Z,13.63
2018-11-22T12:55:01.797Z,12.40
2018-11-22T12:57:41.211Z,13.93
2018-11-22T13:00:20.929Z,14.07
2018-11-22T13:03:00.561Z,14.43
2018-11-22T13:05:39.992Z,15.10
2018-11-22T13:08:19.638Z,15.03
2018-11-22T13:10:59.158Z,13.10
2018-11-22T13:13:38.752Z,13.67
2018-11-22T13:16:19.031Z,14.53
2018-11-22T13:18:59.359Z,13.20
2018-11-22T13:21:37.903Z,14.17
2018-11-22T13:24:17.623Z,15.07
2018-11-22T13:26:57.250Z,15.00
2018-11-22T13:29:36.911Z,15.03
2018-11-22T13:32:21.256Z,13.77
2018-11-22T13:34:56.517Z,15.07
2018-11-22T13:37:36.074Z,14.57
2018-11-22T13:40:16.435Z,14.27
2018-11-22T13:42:55.938Z,13.27
2018-11-22T13:45:35.997Z,15.10
2018-11-22T13:48:16.200Z,14.30
2018-11-22T13:50:55.686Z,13.90
2018-11-22T13:53:35.429Z,15.30
2018-11-22T13:56:14.861Z,14.27
2018-11-22T13:58:54.475Z,14.57
2018-11-22T14:01:34.031Z,14.23
2018-11-22T14:04:13.556Z,14.70
2018-11-22T14:06:53.283Z,14.43
2018-11-22T14:09:32.794Z,13.97
2018-11-22T14:12:12.549Z,13.03
2018-11-22T14:14:51.965Z,15.00
2018-11-22T14:17:31.763Z,13.80
2018-11-22T14:20:36.937Z,14.90
2018-11-22T14:23:17.195Z,14.27
2018-11-22T14:25:56.784Z,14.77
2018-11-22T14:28:36.274Z,13.47
2018-11-22T14:31:15.959Z,12.50
2018-11-22T14:33:55.701Z,13.40
2018-11-22T14:36:35.634Z,15.17
2018-11-22T14:39:15.293Z,13.97
2018-11-22T14:41:55.150Z,14.87
2018-11-22T14:44:35.049Z,15.07
2018-11-22T14:47:14.518Z,14.83
2018-11-22T14:49:54.036Z,14.17
2018-11-22T14:52:33.593Z,14.10
2018-11-22T14:55:13.067Z,12.60
2018-11-22T14:57:52.566Z,12.30
2018-11-22T15:00:32.514Z,13.13
2018-11-22T15:03:12.183Z,12.07
2018-11-22T15:05:51.470Z,11.93
2018-11-22T15:08:31.086Z,12.73
2018-11-22T15:11:10.642Z,12.67
2018-11-22T15:13:50.364Z,11.83
2018-11-22T15:16:30.000Z,11.83
2018-11-22T15:19:10.131Z,11.83
2018-11-22T15:21:49.846Z,10.93
2018-11-22T15:24:29.640Z,11.50
2018-11-22T15:27:09.040Z,11.47
2018-11-22T15:29:48.844Z,12.07
2018-11-22T15:32:28.696Z,12.20
2018-11-22T15:35:09.073Z,11.60
2018-11-22T15:37:49.350Z,12.00
2018-11-22T15:40:28.785Z,11.67
2018-11-22T15:43:08.246Z,10.20
2018-11-22T15:45:48.120Z,11.30
2018-11-22T15:48:27.657Z,10.50
2018-11-22T15:51:07.387Z,11.73
2018-11-22T15:53:46.811Z,11.07
2018-11-22T15:56:26.610Z,11.10
2018-11-22T15:59:06.148Z,11.03
2018-11-22T16:01:46.242Z,9.97
2018-11-22T16:04:25.484Z,9.57
2018-11-22T16:07:05.319Z,10.60
2018-11-22T16:09:45.400Z,9.93
2018-11-22T16:12:25.082Z,9.60
2018-11-22T16:15:04.755Z,9.77
2018-11-22T16:17:44.671Z,9.73
2018-11-22T16:20:24.460Z,10.20
2018-11-22T16:23:03.833Z,9.30
2018-11-22T16:25:43.821Z,10.50
2018-11-22T16:28:23.457Z,10.37
2018-11-22T16:31:02.849Z,9.17
2018-11-22T16:33:42.877Z,9.40
2018-11-22T16:36:22.568Z,9.87
2018-11-22T16:39:02.288Z,10.00
2018-11-22T16:41:41.753Z,9.90
2018-11-22T16:44:21.443Z,11.77
2018-11-22T16:47:01.392Z,10.80
2018-11-22T16:49:41.328Z,11.40
2018-11-22T16:52:20.957Z,12.30
2018-11-22T16:55:00.755Z,13.07
2018-11-22T16:57:41.822Z,12.13
2018-11-22T17:00:31.492Z,12.23
2018-11-22T17:03:12.245Z,12.40
2018-11-22T17:05:52.442Z,11.97
2018-11-22T17:08:31.751Z,13.43
2018-11-22T17:11:11.162Z,12.57
2018-11-22T17:13:50.891Z,11.90
2018-11-22T17:16:31.086Z,13.17
2018-11-22T17:19:10.329Z,14.63
2018-11-22T17:21:50.277Z,13.13
2018-11-22T17:24:30.064Z,11.93
2018-11-22T17:27:09.564Z,13.13
2018-11-22T17:29:49.473Z,11.80
2018-11-22T17:32:29.001Z,14.87
2018-11-22T17:35:09.620Z,12.63
2018-11-22T17:37:49.597Z,13.13
2018-11-22T17:40:30.414Z,13.77
2018-11-22T17:43:10.025Z,12.80
2018-11-22T17:45:51.245Z,13.67
2018-11-22T17:48:31.184Z,13.23
2018-11-22T17:51:11.097Z,13.17
2018-11-22T17:53:50.606Z,12.93
2018-11-22T17:56:30.365Z,14.07
2018-11-22T17:59:09.871Z,13.77
2018-11-22T18:01:49.749Z,13.43
2018-11-22T18:04:29.537Z,13.43
2018-11-22T18:07:09.248Z,12.83
2018-11-22T18:09:48.871Z,14.97
2018-11-22T18:12:28.675Z,13.20
2018-11-22T18:15:09.098Z,13.53
2018-11-22T18:17:46.970Z,13.90
2018-11-22T18:20:33.467Z,13.27
2018-11-22T18:23:19.924Z,12.90
2018-11-22T18:26:06.404Z,12.63
2018-11-22T18:28:52.810Z,12.30
2018-11-22T18:31:39.363Z,13.30
2018-11-22T18:34:26.068Z,13.77
2018-11-22T18:37:12.801Z,13.53
2018-11-22T18:39:59.222Z,12.43
2018-11-22T18:42:46.480Z,12.60
2018-11-22T18:45:52.593Z,12.63
2018-11-22T18:48:39.065Z,11.13
2018-11-22T18:51:25.746Z,13.13
2018-11-22T18:54:12.203Z,11.70
2018-11-22T18:56:58.670Z,12.77
2018-11-22T18:59:45.169Z,12.00
2018-11-22T19:02:31.913Z,11.60
2018-11-22T19:05:18.666Z,11.80
2018-11-22T19:08:05.091Z,11.30
2018-11-22T19:10:51.574Z,11.87
2018-11-22T19:13:38.275Z,11.03
2018-11-22T19:16:24.763Z,12.70
2018-11-22T19:19:11.193Z,12.00
2018-11-22T19:21:57.681Z,11.73
2018-11-22T19:24:44.113Z,13.40
2018-11-22T19:27:30.724Z,11.30
2018-11-22T19:30:37.618Z,13.20
2018-11-22T19:33:23.733Z,11.93
2018-11-22T19:36:10.154Z,12.80
2018-11-22T19:38:56.622Z,14.80
2018-11-22T19:41:43.064Z,11.33
2018-11-22T19:44:29.950Z,12.17
2018-11-22T19:47:16.542Z,13.70
2018-11-22T19:50:03.716Z,13.07
2018-11-22T19:52:50.797Z,12.93
2018-11-22T19:55:37.760Z,12.40
2018-11-22T19:58:24.201Z,12.10
2018-11-22T20:01:10.717Z,12.33
2018-11-22T20:03:57.202Z,10.93
2018-11-22T20:06:43.671Z,12.03
2018-11-22T20:09:30.380Z,12.80
2018-11-22T20:12:16.957Z,12.43
2018-11-22T20:15:03.948Z,12.97
2018-11-22T20:20:49.537Z,11.60
2018-11-22T20:23:30.305Z,12.47
2018-11-22T20:26:16.984Z,12.83
2018-11-22T20:29:03.433Z,13.07
2018-11-22T20:31:50.100Z,11.77
2018-11-22T20:34:36.590Z,11.47
2018-11-22T20:37:23.028Z,12.20
2018-11-22T20:40:10.063Z,13.27
2018-11-22T20:42:56.880Z,12.70
2018-11-22T20:45:43.350Z,12.93
2018-11-22T20:48:29.828Z,13.87
2018-11-22T20:51:16.347Z,12.17
2018-11-22T20:54:02.772Z,13.07
2018-11-22T20:56:49.299Z,12.97
2018-11-22T20:59:35.749Z,12.60
2018-11-22T21:02:22.478Z,12.90
2018-11-22T21:05:09.882Z,13.27
2018-11-22T21:07:56.344Z,12.67
2018-11-22T21:10:42.794Z,12.53
2018-11-22T21:13:29.261Z,14.57
2018-11-22T21:16:15.952Z,12.23
2018-11-22T21:19:02.441Z,11.97
2018-11-22T21:21:49.106Z,12.40
2018-11-22T21:24:35.579Z,13.03
2018-11-22T21:27:22.031Z,12.00
2018-11-22T21:30:09.406Z,12.13
2018-11-22T21:32:56.775Z,12.33
2018-11-22T21:35:43.364Z,13.37
2018-11-22T21:38:29.798Z,13.27
2018-11-22T21:41:16.253Z,12.07
2018-11-22T21:44:02.682Z,12.00
2018-11-22T21:46:49.443Z,11.80
2018-11-22T21:49:36.120Z,11.87
2018-11-22T21:52:22.601Z,11.73
2018-11-22T21:55:10.883Z,10.80
2018-11-22T21:57:58.610Z,12.87
2018-11-22T22:00:45.306Z,11.90
2018-11-22T22:03:31.807Z,12.20
2018-11-22T22:06:18.273Z,12.37
2018-11-22T22:09:05.459Z,11.73
2018-11-22T22:11:52.127Z,13.33
2018-11-22T22:14:38.847Z,12.50
2018-11-22T22:17:25.300Z,12.27
2018-11-22T22:20:31.419Z,12.90
2018-11-22T22:23:18.112Z,12.77
2018-11-22T22:26:04.803Z,12.17
2018-11-22T22:28:51.981Z,12.33
2018-11-22T22:31:38.492Z,11.83
2018-11-22T22:34:24.936Z,13.20
2018-11-22T22:37:11.432Z,11.43
2018-11-22T22:40:03.589Z,12.23
2018-11-22T22:42:45.374Z,12.77
2018-11-22T22:45:32.338Z,12.67
2018-11-22T22:48:18.845Z,12.73
2018-11-22T22:51:05.275Z,12.30
2018-11-22T22:53:52.005Z,13.03
2018-11-22T22:56:38.421Z,12.70
2018-11-22T22:59:24.876Z,12.60
2018-11-22T23:02:11.345Z,12.53
2018-11-22T23:04:57.822Z,12.40
2018-11-22T23:07:44.545Z,12.67
2018-11-22T23:10:31.040Z,12.73
2018-11-22T23:13:17.758Z,12.60
2018-11-22T23:16:04.232Z,12.17
2018-11-22T23:18:50.760Z,11.80
2018-11-22T23:21:37.244Z,12.33
2018-11-22T23:24:23.704Z,11.93
2018-11-22T23:27:10.174Z,12.37
2018-11-22T23:29:56.614Z,12.83
2018-11-22T23:32:44.643Z,13.80
2018-11-22T23:35:31.105Z,13.23
2018-11-22T23:38:17.555Z,11.47
2018-11-22T23:41:04.269Z,11.77
2018-11-22T23:43:50.770Z,11.90
2018-11-22T23:46:37.222Z,13.63
2018-11-22T23:49:23.710Z,13.50
2018-11-22T23:52:10.130Z,12.97
2018-11-22T23:54:56.626Z,12.97
2018-11-22T23:57:43.136Z,11.97
